Sovereign — 9HUE9 — position and weather

sailwx.info

Track history (hours):
 
Tides and Currents Weather Stations Pressure Air Temp Water Temp Dewpoint Dewpoint Depression Visibility Wind Speed Wind Dir Waves Ship Positions

Sovereign

Last reported at 2017-Jul-28 08:29 UTC. Time now 2017-Jul-28 08:36 UTC.
Position N 43°06' E 005°54'.

Length 268 m; draft 7.8 m.

Type: Passenger vessel. MMSI: 249539000.

Date/timePositionNaut miles runAvg speedWind from/ knotsBaromVisibWave heightAir tempDewpointWater temp
2017-Jul-28 08:29N 43°06' E 005°54'0 0.0
2017-Jul-28 07:59N 43°06' E 005°54'0 0.0
2017-Jul-28 07:29N 43°06' E 005°54'0 0.0
2017-Jul-28 06:59N 43°06' E 005°54'0 0.0
2017-Jul-28 06:29N 43°06' E 005°54'0 0.0
2017-Jul-28 05:59N 43°06' E 005°54'0 0.1
2017-Jul-28 05:30N 43°06' E 005°54'1 2.2
2017-Jul-28 05:01N 43°06' E 005°55'44 4.7
2017-Jul-27 19:35N 43°02' E 006°56'2 7.3
2017-Jul-27 19:22N 43°04' E 006°57'3 7.8
2017-Jul-27 19:00N 43°06' E 006°59'4 8.0
2017-Jul-27 18:30N 43°09' E 007°03'4 8.1
2017-Jul-27 18:00N 43°12' E 007°06'4 7.7
2017-Jul-27 17:30N 43°16' E 007°06'4 8.2
2017-Jul-27 17:00N 43°20' E 007°04'4 8.2
2017-Jul-27 16:30N 43°24' E 007°02'4 7.9
2017-Jul-27 16:00N 43°28' E 007°01'3 6.7
2017-Jul-27 15:30N 43°31' E 007°01'1 1.4
2017-Jul-27 14:59N 43°32' E 007°01'0 0.1
2017-Jul-27 13:59N 43°32' E 007°01'0 0.0
2017-Jul-27 13:29N 43°32' E 007°01'0 0.1
2017-Jul-27 12:59N 43°32' E 007°01'0 0.0
2017-Jul-27 12:26N 43°32' E 007°01'0 0.0
2017-Jul-27 11:56N 43°32' E 007°01'0 0.0
2017-Jul-27 11:29N 43°32' E 007°01'0 0.0
2017-Jul-27 10:59N 43°32' E 007°01'0 0.0
2017-Jul-27 10:29N 43°32' E 007°01'0 0.0
2017-Jul-27 09:59N 43°32' E 007°01'0 0.1
2017-Jul-27 09:29N 43°32' E 007°01'0 0.1
2017-Jul-27 08:59N 43°32' E 007°01'0 0.1
2017-Jul-27 08:29N 43°32' E 007°01'0 0.1
2017-Jul-27 07:59N 43°32' E 007°01'0 0.0
2017-Jul-27 07:29N 43°32' E 007°01'0 0.0
2017-Jul-27 06:59N 43°32' E 007°01'0 0.0
2017-Jul-27 06:29N 43°32' E 007°01'0 0.0
2017-Jul-27 05:59N 43°32' E 007°01'0 0.8
2017-Jul-27 05:30N 43°32' E 007°01'3 5.1
2017-Jul-27 05:00N 43°29' E 007°01'510.7
2017-Jul-27 04:30N 43°28' E 007°09'713.0
2017-Jul-27 04:00N 43°28' E 007°18'713.3
2017-Jul-27 03:30N 43°29' E 007°27'713.3
2017-Jul-27 03:00N 43°30' E 007°36'713.4
2017-Jul-27 02:30N 43°30' E 007°45'713.8
2017-Jul-27 02:00N 43°30' E 007°55'713.9
2017-Jul-27 01:30N 43°30' E 008°04'713.7
2017-Jul-27 01:00N 43°30' E 008°14'713.9
2017-Jul-27 00:30N 43°31' E 008°23'713.7
2017-Jul-27 00:00N 43°31' E 008°33'713.4
2017-Jul-26 23:30N 43°31' E 008°42'713.7
2017-Jul-26 23:00N 43°31' E 008°51'713.7
2017-Jul-26 22:30N 43°31' E 009°01'713.6
2017-Jul-26 22:00N 43°31' E 009°10'713.5
2017-Jul-26 21:30N 43°32' E 009°19'713.5
2017-Jul-26 21:00N 43°32' E 009°29'713.6
2017-Jul-26 20:31N 43°32' E 009°38'713.7
2017-Jul-26 20:00N 43°32' E 009°48'713.6
2017-Jul-26 19:30N 43°31' E 009°57'713.6
2017-Jul-26 19:00N 43°30' E 010°06'612.5
2017-Jul-26 18:30N 43°32' E 010°15'3 5.1
2017-Jul-26 17:58N 43°33' E 010°18'0 0.0
2017-Jul-26 17:28N 43°33' E 010°18'0 0.0
2017-Jul-26 16:58N 43°33' E 010°18'0 0.0
2017-Jul-26 16:28N 43°33' E 010°18'0 0.0
2017-Jul-26 15:58N 43°33' E 010°18'0 0.0
2017-Jul-26 15:28N 43°33' E 010°18'0 0.0
2017-Jul-26 14:58N 43°33' E 010°18'0 0.0
2017-Jul-26 13:58N 43°33' E 010°18'0 0.0
2017-Jul-26 13:28N 43°33' E 010°18'0 0.0
2017-Jul-26 12:58N 43°33' E 010°18'0 0.0
2017-Jul-26 12:28N 43°33' E 010°18'0 0.0
2017-Jul-26 11:55N 43°33' E 010°18'0 0.0
2017-Jul-26 11:25N 43°33' E 010°18'0 0.0
2017-Jul-26 10:40N 43°33' E 010°18'0 0.0
2017-Jul-26 10:28N 43°33' E 010°18'0 0.0
2017-Jul-26 09:55N 43°33' E 010°18'0 0.0
2017-Jul-26 09:28N 43°33' E 010°18'0 0.0
2017-Jul-26 08:58N 43°33' E 010°18'0 0.0
2017-Jul-26 08:28N 43°33' E 010°18'0 0.0
2017-Jul-26 07:58N 43°33' E 010°18'0 0.0
2017-Jul-26 07:28N 43°33' E 010°18'0 0.0
2017-Jul-26 06:58N 43°33' E 010°18'0 0.0
2017-Jul-26 06:28N 43°33' E 010°18'0 0.0
2017-Jul-26 05:58N 43°33' E 010°18'0 0.5
2017-Jul-26 05:31N 43°33' E 010°18'2 4.6
2017-Jul-26 05:00N 43°31' E 010°16'4 8.4
2017-Jul-26 04:29N 43°27' E 010°13'5 9.4
2017-Jul-26 04:00N 43°23' E 010°12'611.1
2017-Jul-26 03:30N 43°18' E 010°11'611.1
2017-Jul-26 03:01N 43°12' E 010°09'511.0
2017-Jul-26 02:30N 43°07' E 010°08'510.6
2017-Jul-26 02:01N 43°02' E 010°06'713.1
2017-Jul-26 01:31N 42°55' E 010°03'2612.8
2017-Jul-25 23:27N 42°31' E 010°17'613.8
2017-Jul-25 23:00N 42°27' E 010°23'187 6.8
2017-Jul-24 19:27N 40°38' E 013°47'715.3
2017-Jul-24 19:00N 40°38' E 013°55'714.7
2017-Jul-24 18:30N 40°40' E 014°05'815.4
2017-Jul-24 18:00N 40°45' E 014°12'611.8
2017-Jul-24 17:30N 40°50' E 014°16'1 0.8
2017-Jul-24 16:29N 40°50' E 014°15'0 0.0
2017-Jul-24 15:47N 40°50' E 014°15'0 0.0
2017-Jul-24 12:50N 40°50' E 014°15'0 0.0
2017-Jul-24 12:20N 40°50' E 014°15'0 0.0
2017-Jul-24 11:59N 40°50' E 014°15'0 0.0
2017-Jul-24 11:20N 40°50' E 014°15'0 0.0
2017-Jul-24 10:59N 40°50' E 014°15'0 0.0
2017-Jul-24 10:23N 40°50' E 014°15'0 0.0
2017-Jul-24 09:53N 40°50' E 014°15'0 0.0
2017-Jul-24 09:26N 40°50' E 014°15'0 0.0
2017-Jul-24 08:59N 40°50' E 014°15'0 0.0
2017-Jul-24 08:29N 40°50' E 014°15'0 0.0
2017-Jul-24 07:59N 40°50' E 014°15'0 0.0
2017-Jul-24 07:29N 40°50' E 014°15'0 0.0
2017-Jul-24 06:59N 40°50' E 014°15'0 0.0
2017-Jul-24 06:30N 40°50' E 014°15'2 3.6
2017-Jul-24 06:01N 40°49' E 014°17'510.7
2017-Jul-24 05:30N 40°45' E 014°12'812.4
2017-Jul-24 04:54N 40°40' E 014°05'613.5
2017-Jul-24 04:29N 40°37' E 013°59'613.3
2017-Jul-24 04:00N 40°33' E 013°52'613.1
2017-Jul-24 03:30N 40°29' E 013°45'713.6
2017-Jul-24 03:00N 40°30' E 013°36'713.9
2017-Jul-24 02:30N 40°32' E 013°27'7314.2
2017-Jul-23 21:24N 40°50' E 011°54'714.1
2017-Jul-23 20:55N 40°51' E 011°45'614.1
2017-Jul-23 20:30N 40°53' E 011°38'713.9
2017-Jul-23 20:00N 40°55' E 011°30'713.8
2017-Jul-23 19:29N 40°57' E 011°20'2413.8
2017-Jul-23 17:47N 41°04' E 010°50'414.1
2017-Jul-23 17:30N 41°05' E 010°45'1414.3
2017-Jul-23 16:33N 41°08' E 010°28'114.4
2017-Jul-23 16:30N 41°08' E 010°27'714.4
2017-Jul-23 16:00N 41°10' E 010°18'714.4
2017-Jul-23 15:30N 41°12' E 010°09'814.5
2017-Jul-23 14:59N 41°14' E 009°59'914.3
2017-Jul-23 14:19N 41°17' E 009°47'1914.7
2017-Jul-23 13:02N 41°21' E 009°22'016.0
2017-Jul-23 13:00N 41°21' E 009°22'2015.3
2017-Jul-23 11:43N 41°17' E 008°56'4816.0
2017-Jul-23 08:42N 41°21' E 007°52'17116.1
2017-Jul-22 22:05N 41°18' E 004°04'116.6
2017-Jul-22 22:00N 41°18' E 004°03'816.5
2017-Jul-22 21:30N 41°18' E 003°52'816.5
2017-Jul-22 21:00N 41°17' E 003°40'816.3
2017-Jul-22 20:30N 41°17' E 003°30'816.1
2017-Jul-22 20:00N 41°17' E 003°19'816.0
2017-Jul-22 19:30N 41°17' E 003°08'816.0
2017-Jul-22 18:59N 41°16' E 002°57'816.1
2017-Jul-22 18:29N 41°16' E 002°47'816.4
2017-Jul-22 17:58N 41°16' E 002°36'816.2
2017-Jul-22 17:27N 41°16' E 002°24'715.7
2017-Jul-22 16:59N 41°15' E 002°15'511.2
2017-Jul-22 16:30N 41°20' E 002°10'2 1.1
2017-Jul-22 14:37N 41°22' E 002°11'0 0.0
2017-Jul-22 11:19N 41°22' E 002°11'0 0.0
2017-Jul-22 10:55N 41°22' E 002°11'0 0.0
2017-Jul-22 10:19N 41°22' E 002°11'0 0.0
2017-Jul-22 08:55N 41°22' E 002°11'0 0.0
2017-Jul-22 06:58N 41°22' E 002°11'1 1.6
2017-Jul-22 06:26N 41°21' E 002°10'4 7.7
2017-Jul-22 05:59N 41°17' E 002°11'510.4
2017-Jul-22 05:30N 41°16' E 002°17'713.0
2017-Jul-22 05:00N 41°15' E 002°26'913.9
2017-Jul-22 04:20N 41°17' E 002°38'514.1
2017-Jul-22 03:59N 41°20' E 002°44'714.3
2017-Jul-22 03:30N 41°23' E 002°51'714.3
2017-Jul-22 03:00N 41°27' E 002°59'713.9
2017-Jul-22 02:30N 41°32' E 003°07'714.0
2017-Jul-22 02:00N 41°36' E 003°14'815.6
2017-Jul-22 01:30N 41°40' E 003°23'1016.2
2017-Jul-22 00:53N 41°46' E 003°34'616.4
2017-Jul-22 00:30N 41°50' E 003°41'816.5
2017-Jul-21 23:59N 41°54' E 003°50'816.5
2017-Jul-21 23:30N 41°59' E 003°59'816.4
2017-Jul-21 23:00N 42°04' E 004°08'816.4
2017-Jul-21 22:31N 42°08' E 004°17'816.0
2017-Jul-21 22:00N 42°13' E 004°26'815.9
2017-Jul-21 21:31N 42°18' E 004°34'815.9
2017-Jul-21 21:01N 42°22' E 004°43'816.0
2017-Jul-21 20:30N 42°27' E 004°52'816.1
2017-Jul-21 20:00N 42°31' E 005°01'816.2
2017-Jul-21 19:31N 42°36' E 005°10'816.1
2017-Jul-21 19:01N 42°41' E 005°19'816.2
2017-Jul-21 18:29N 42°45' E 005°28'816.2
2017-Jul-21 18:00N 42°50' E 005°37'2115.2
2017-Jul-21 16:37N 43°04' E 005°58'111.4
2017-Jul-21 16:30N 43°05' E 005°57'2 3.7
2017-Jul-21 16:00N 43°07' E 005°56'0 0.0
2017-Jul-21 15:27N 43°07' E 005°56'0 0.0
2017-Jul-21 15:00N 43°07' E 005°56'0 0.0
2017-Jul-21 14:30N 43°07' E 005°56'0 0.0
2017-Jul-21 14:00N 43°07' E 005°56'0 0.0
2017-Jul-21 13:30N 43°07' E 005°56'0 0.0
2017-Jul-21 13:00N 43°07' E 005°56'0 0.0
2017-Jul-21 12:30N 43°07' E 005°56'0 0.0
2017-Jul-21 12:00N 43°07' E 005°56'0 0.0
2017-Jul-21 11:30N 43°07' E 005°56'0 0.0
2017-Jul-21 11:01N 43°07' E 005°56'0 0.0
2017-Jul-21 10:30N 43°07' E 005°56'0 0.0
2017-Jul-21 10:00N 43°07' E 005°56'0 0.0
2017-Jul-21 09:29N 43°07' E 005°56'0 0.0
2017-Jul-21 09:00N 43°07' E 005°56'0 0.0
2017-Jul-21 08:30N 43°07' E 005°56'0 0.0
2017-Jul-21 07:59N 43°07' E 005°56'0 0.0
2017-Jul-21 07:29N 43°07' E 005°56'0 0.0
2017-Jul-21 06:59N 43°07' E 005°56'0 0.0
2017-Jul-21 06:29N 43°07' E 005°56'0 0.9
2017-Jul-21 06:00N 43°07' E 005°55'2 4.2
2017-Jul-21 05:30N 43°05' E 005°57'5 9.7
2017-Jul-21 04:58N 43°01' E 006°02'1 1.7
2017-Jul-21 04:07N 43°00' E 006°03'0 1.5
2017-Jul-21 04:00N 43°00' E 006°04'1 1.5
2017-Jul-21 03:30N 42°60' E 006°04'2 2.0
2017-Jul-21 02:27N 42°58' E 006°06'4 9.0
2017-Jul-21 02:00N 42°54' E 006°09'4 8.7
2017-Jul-21 01:30N 42°50' E 006°11'4 8.6
2017-Jul-21 01:00N 42°47' E 006°14'4 7.6
2017-Jul-21 00:30N 42°44' E 006°18'4 8.7
2017-Jul-21 00:00N 42°44' E 006°24'4 8.8
2017-Jul-20 23:30N 42°44' E 006°30'12 8.1
2017-Jul-20 22:00N 42°52' E 006°43'5 8.8
2017-Jul-20 21:29N 42°55' E 006°48'4 8.8
2017-Jul-20 21:00N 42°58' E 006°52'4 8.9
2017-Jul-20 20:30N 43°01' E 006°56'4 8.8
2017-Jul-20 20:00N 43°04' E 007°00'4 8.7
2017-Jul-20 19:30N 43°08' E 007°04'4 8.5
2017-Jul-20 19:00N 43°11' E 007°07'4 8.8
2017-Jul-20 18:30N 43°15' E 007°11'4 8.8
2017-Jul-20 18:00N 43°18' E 007°14'4 8.3
2017-Jul-20 17:30N 43°22' E 007°16'4 8.8
2017-Jul-20 17:00N 43°26' E 007°17'4 8.8
2017-Jul-20 16:30N 43°31' E 007°17'4 8.5
2017-Jul-20 16:00N 43°35' E 007°18'4 8.0
2017-Jul-20 15:30N 43°39' E 007°18'2 4.0
2017-Jul-20 14:53N 43°42' E 007°19'0 0.0
2017-Jul-20 05:30N 43°41' E 007°19'3 5.4
2017-Jul-20 05:00N 43°39' E 007°21'611.5
2017-Jul-20 04:29N 43°39' E 007°30'510.4
2017-Jul-20 04:00N 43°39' E 007°37'911.3
2017-Jul-20 03:13N 43°38' E 007°49'211.4
2017-Jul-20 03:00N 43°38' E 007°52'611.5
2017-Jul-20 02:31N 43°38' E 007°60'612.3
2017-Jul-20 02:00N 43°37' E 008°08'612.4
2017-Jul-20 01:31N 43°37' E 008°17'612.3
2017-Jul-20 01:01N 43°36' E 008°25'612.1
2017-Jul-20 00:31N 43°36' E 008°34'612.2
2017-Jul-20 00:01N 43°36' E 008°42'612.2
2017-Jul-19 23:30N 43°35' E 008°51'611.8
2017-Jul-19 23:01N 43°35' E 008°59'611.8
2017-Jul-19 22:30N 43°35' E 009°07'611.8
2017-Jul-19 22:01N 43°34' E 009°15'611.9
2017-Jul-19 21:31N 43°34' E 009°23'611.8
2017-Jul-19 21:01N 43°33' E 009°31'611.9
2017-Jul-19 20:31N 43°33' E 009°39'611.6
2017-Jul-19 20:01N 43°32' E 009°47'611.2
2017-Jul-19 19:31N 43°31' E 009°55'713.5
2017-Jul-19 19:00N 43°31' E 010°04'713.4
2017-Jul-19 18:30N 43°32' E 010°13'4 7.3
2017-Jul-19 18:00N 43°33' E 010°18'0 0.1
2017-Jul-19 17:27N 43°33' E 010°18'0 0.0
2017-Jul-19 16:57N 43°33' E 010°18'0 0.0
2017-Jul-19 16:21N 43°33' E 010°18'0 0.0
2017-Jul-19 15:57N 43°33' E 010°18'0 0.0
2017-Jul-19 15:27N 43°33' E 010°18'0 0.0
2017-Jul-19 14:57N 43°33' E 010°18'0 0.0
2017-Jul-19 14:27N 43°33' E 010°18'0 0.0
2017-Jul-19 13:51N 43°33' E 010°18'0 0.0
2017-Jul-19 13:27N 43°33' E 010°18'0 0.0
2017-Jul-19 12:51N 43°33' E 010°18'0 0.0
2017-Jul-19 12:27N 43°33' E 010°18'0 0.0
2017-Jul-19 11:57N 43°33' E 010°18'0 0.0
2017-Jul-19 11:27N 43°33' E 010°18'0 0.0
2017-Jul-19 10:57N 43°33' E 010°18'0 0.0
2017-Jul-19 10:27N 43°33' E 010°18'0 0.0
2017-Jul-19 09:57N 43°33' E 010°18'0 0.0
2017-Jul-19 09:27N 43°33' E 010°18'0 0.0
2017-Jul-19 08:57N 43°33' E 010°18'0 0.0
2017-Jul-19 08:27N 43°33' E 010°18'0 0.0
2017-Jul-19 07:57N 43°33' E 010°18'0 0.0
2017-Jul-19 07:27N 43°33' E 010°18'0 0.0
2017-Jul-19 06:57N 43°33' E 010°18'0 0.0
2017-Jul-19 06:27N 43°33' E 010°18'0 0.0
2017-Jul-19 05:57N 43°33' E 010°18'0 0.4
2017-Jul-19 05:30N 43°33' E 010°18'3 5.1
2017-Jul-19 05:00N 43°31' E 010°16'510.7
2017-Jul-19 04:30N 43°26' E 010°12'611.4
2017-Jul-19 04:00N 43°21' E 010°11'611.9
2017-Jul-19 03:30N 43°15' E 010°09'611.8
2017-Jul-19 03:00N 43°09' E 010°07'611.8
2017-Jul-19 02:30N 43°03' E 010°06'611.8
2017-Jul-19 02:01N 42°58' E 010°05'611.9
2017-Jul-19 01:31N 42°52' E 010°03'611.7
2017-Jul-19 01:00N 42°46' E 010°02'611.6
2017-Jul-19 00:31N 42°41' E 010°06'1411.6
2017-Jul-18 23:16N 42°30' E 010°19'311.8
2017-Jul-18 23:00N 42°28' E 010°22'1711.9
2017-Jul-18 21:35N 42°15' E 010°37'311.6
2017-Jul-18 21:22N 42°13' E 010°39'611.6
2017-Jul-18 20:51N 42°09' E 010°44'411.6
2017-Jul-18 20:30N 42°06' E 010°48'611.1
2017-Jul-18 20:00N 42°03' E 010°55'713.1
2017-Jul-18 19:30N 42°01' E 011°03'713.8
2017-Jul-18 19:00N 42°01' E 011°12'  
Track history (hours):
 
Tides and Currents Weather Stations Pressure Air Temp Water Temp Dewpoint Dewpoint Depression Visibility Wind Speed Wind Dir Waves Ship Positions

Sovereign

Last reported at 2017-Jul-28 08:29 UTC. Time now 2017-Jul-28 08:36 UTC.
Position N 43°06' E 005°54'.

Length 268 m; draft 7.8 m.

Type: Passenger vessel. MMSI: 249539000.

Date/timePositionNaut miles runAvg speedWind from/ knotsBaromVisibWave heightAir tempDewpointWater temp
2017-Jul-28 08:29N 43°06' E 005°54'0 0.0
2017-Jul-28 07:59N 43°06' E 005°54'0 0.0
2017-Jul-28 07:29N 43°06' E 005°54'0 0.0
2017-Jul-28 06:59N 43°06' E 005°54'0 0.0
2017-Jul-28 06:29N 43°06' E 005°54'0 0.0
2017-Jul-28 05:59N 43°06' E 005°54'0 0.1
2017-Jul-28 05:30N 43°06' E 005°54'1 2.2
2017-Jul-28 05:01N 43°06' E 005°55'44 4.7
2017-Jul-27 19:35N 43°02' E 006°56'2 7.3
2017-Jul-27 19:22N 43°04' E 006°57'3 7.8
2017-Jul-27 19:00N 43°06' E 006°59'4 8.0
2017-Jul-27 18:30N 43°09' E 007°03'4 8.1
2017-Jul-27 18:00N 43°12' E 007°06'4 7.7
2017-Jul-27 17:30N 43°16' E 007°06'4 8.2
2017-Jul-27 17:00N 43°20' E 007°04'4 8.2
2017-Jul-27 16:30N 43°24' E 007°02'4 7.9
2017-Jul-27 16:00N 43°28' E 007°01'3 6.7
2017-Jul-27 15:30N 43°31' E 007°01'1 1.4
2017-Jul-27 14:59N 43°32' E 007°01'0 0.1
2017-Jul-27 13:59N 43°32' E 007°01'0 0.0
2017-Jul-27 13:29N 43°32' E 007°01'0 0.1
2017-Jul-27 12:59N 43°32' E 007°01'0 0.0
2017-Jul-27 12:26N 43°32' E 007°01'0 0.0
2017-Jul-27 11:56N 43°32' E 007°01'0 0.0
2017-Jul-27 11:29N 43°32' E 007°01'0 0.0
2017-Jul-27 10:59N 43°32' E 007°01'0 0.0
2017-Jul-27 10:29N 43°32' E 007°01'0 0.0
2017-Jul-27 09:59N 43°32' E 007°01'0 0.1
2017-Jul-27 09:29N 43°32' E 007°01'0 0.1
2017-Jul-27 08:59N 43°32' E 007°01'0 0.1
2017-Jul-27 08:29N 43°32' E 007°01'0 0.1
2017-Jul-27 07:59N 43°32' E 007°01'0 0.0
2017-Jul-27 07:29N 43°32' E 007°01'0 0.0
2017-Jul-27 06:59N 43°32' E 007°01'0 0.0
2017-Jul-27 06:29N 43°32' E 007°01'0 0.0
2017-Jul-27 05:59N 43°32' E 007°01'0 0.8
2017-Jul-27 05:30N 43°32' E 007°01'3 5.1
2017-Jul-27 05:00N 43°29' E 007°01'510.7
2017-Jul-27 04:30N 43°28' E 007°09'713.0
2017-Jul-27 04:00N 43°28' E 007°18'713.3
2017-Jul-27 03:30N 43°29' E 007°27'713.3
2017-Jul-27 03:00N 43°30' E 007°36'713.4
2017-Jul-27 02:30N 43°30' E 007°45'713.8
2017-Jul-27 02:00N 43°30' E 007°55'713.9
2017-Jul-27 01:30N 43°30' E 008°04'713.7
2017-Jul-27 01:00N 43°30' E 008°14'713.9
2017-Jul-27 00:30N 43°31' E 008°23'713.7
2017-Jul-27 00:00N 43°31' E 008°33'713.4
2017-Jul-26 23:30N 43°31' E 008°42'713.7
2017-Jul-26 23:00N 43°31' E 008°51'713.7
2017-Jul-26 22:30N 43°31' E 009°01'713.6
2017-Jul-26 22:00N 43°31' E 009°10'713.5
2017-Jul-26 21:30N 43°32' E 009°19'713.5
2017-Jul-26 21:00N 43°32' E 009°29'713.6
2017-Jul-26 20:31N 43°32' E 009°38'713.7
2017-Jul-26 20:00N 43°32' E 009°48'713.6
2017-Jul-26 19:30N 43°31' E 009°57'713.6
2017-Jul-26 19:00N 43°30' E 010°06'612.5
2017-Jul-26 18:30N 43°32' E 010°15'3 5.1
2017-Jul-26 17:58N 43°33' E 010°18'0 0.0
2017-Jul-26 17:28N 43°33' E 010°18'0 0.0
2017-Jul-26 16:58N 43°33' E 010°18'0 0.0
2017-Jul-26 16:28N 43°33' E 010°18'0 0.0
2017-Jul-26 15:58N 43°33' E 010°18'0 0.0
2017-Jul-26 15:28N 43°33' E 010°18'0 0.0
2017-Jul-26 14:58N 43°33' E 010°18'0 0.0
2017-Jul-26 13:58N 43°33' E 010°18'0 0.0
2017-Jul-26 13:28N 43°33' E 010°18'0 0.0
2017-Jul-26 12:58N 43°33' E 010°18'0 0.0
2017-Jul-26 12:28N 43°33' E 010°18'0 0.0
2017-Jul-26 11:55N 43°33' E 010°18'0 0.0
2017-Jul-26 11:25N 43°33' E 010°18'0 0.0
2017-Jul-26 10:40N 43°33' E 010°18'0 0.0
2017-Jul-26 10:28N 43°33' E 010°18'0 0.0
2017-Jul-26 09:55N 43°33' E 010°18'0 0.0
2017-Jul-26 09:28N 43°33' E 010°18'0 0.0
2017-Jul-26 08:58N 43°33' E 010°18'0 0.0
2017-Jul-26 08:28N 43°33' E 010°18'0 0.0
2017-Jul-26 07:58N 43°33' E 010°18'0 0.0
2017-Jul-26 07:28N 43°33' E 010°18'0 0.0
2017-Jul-26 06:58N 43°33' E 010°18'0 0.0
2017-Jul-26 06:28N 43°33' E 010°18'0 0.0
2017-Jul-26 05:58N 43°33' E 010°18'0 0.5
2017-Jul-26 05:31N 43°33' E 010°18'2 4.6
2017-Jul-26 05:00N 43°31' E 010°16'4 8.4
2017-Jul-26 04:29N 43°27' E 010°13'5 9.4
2017-Jul-26 04:00N 43°23' E 010°12'611.1
2017-Jul-26 03:30N 43°18' E 010°11'611.1
2017-Jul-26 03:01N 43°12' E 010°09'511.0
2017-Jul-26 02:30N 43°07' E 010°08'510.6
2017-Jul-26 02:01N 43°02' E 010°06'713.1
2017-Jul-26 01:31N 42°55' E 010°03'2612.8
2017-Jul-25 23:27N 42°31' E 010°17'613.8
2017-Jul-25 23:00N 42°27' E 010°23'187 6.8
2017-Jul-24 19:27N 40°38' E 013°47'715.3
2017-Jul-24 19:00N 40°38' E 013°55'714.7
2017-Jul-24 18:30N 40°40' E 014°05'815.4
2017-Jul-24 18:00N 40°45' E 014°12'611.8
2017-Jul-24 17:30N 40°50' E 014°16'1 0.8
2017-Jul-24 16:29N 40°50' E 014°15'0 0.0
2017-Jul-24 15:47N 40°50' E 014°15'0 0.0
2017-Jul-24 12:50N 40°50' E 014°15'0 0.0
2017-Jul-24 12:20N 40°50' E 014°15'0 0.0
2017-Jul-24 11:59N 40°50' E 014°15'0 0.0
2017-Jul-24 11:20N 40°50' E 014°15'0 0.0
2017-Jul-24 10:59N 40°50' E 014°15'0 0.0
2017-Jul-24 10:23N 40°50' E 014°15'0 0.0
2017-Jul-24 09:53N 40°50' E 014°15'0 0.0
2017-Jul-24 09:26N 40°50' E 014°15'0 0.0
2017-Jul-24 08:59N 40°50' E 014°15'0 0.0
2017-Jul-24 08:29N 40°50' E 014°15'0 0.0
2017-Jul-24 07:59N 40°50' E 014°15'0 0.0
2017-Jul-24 07:29N 40°50' E 014°15'0 0.0
2017-Jul-24 06:59N 40°50' E 014°15'0 0.0
2017-Jul-24 06:30N 40°50' E 014°15'2 3.6
2017-Jul-24 06:01N 40°49' E 014°17'510.7
2017-Jul-24 05:30N 40°45' E 014°12'812.4
2017-Jul-24 04:54N 40°40' E 014°05'613.5
2017-Jul-24 04:29N 40°37' E 013°59'613.3
2017-Jul-24 04:00N 40°33' E 013°52'613.1
2017-Jul-24 03:30N 40°29' E 013°45'713.6
2017-Jul-24 03:00N 40°30' E 013°36'713.9
2017-Jul-24 02:30N 40°32' E 013°27'7314.2
2017-Jul-23 21:24N 40°50' E 011°54'714.1
2017-Jul-23 20:55N 40°51' E 011°45'614.1
2017-Jul-23 20:30N 40°53' E 011°38'713.9
2017-Jul-23 20:00N 40°55' E 011°30'713.8
2017-Jul-23 19:29N 40°57' E 011°20'2413.8
2017-Jul-23 17:47N 41°04' E 010°50'414.1
2017-Jul-23 17:30N 41°05' E 010°45'1414.3
2017-Jul-23 16:33N 41°08' E 010°28'114.4
2017-Jul-23 16:30N 41°08' E 010°27'714.4
2017-Jul-23 16:00N 41°10' E 010°18'714.4
2017-Jul-23 15:30N 41°12' E 010°09'814.5
2017-Jul-23 14:59N 41°14' E 009°59'914.3
2017-Jul-23 14:19N 41°17' E 009°47'1914.7
2017-Jul-23 13:02N 41°21' E 009°22'016.0
2017-Jul-23 13:00N 41°21' E 009°22'2015.3
2017-Jul-23 11:43N 41°17' E 008°56'4816.0
2017-Jul-23 08:42N 41°21' E 007°52'17116.1
2017-Jul-22 22:05N 41°18' E 004°04'116.6
2017-Jul-22 22:00N 41°18' E 004°03'816.5
2017-Jul-22 21:30N 41°18' E 003°52'816.5
2017-Jul-22 21:00N 41°17' E 003°40'816.3
2017-Jul-22 20:30N 41°17' E 003°30'816.1
2017-Jul-22 20:00N 41°17' E 003°19'816.0
2017-Jul-22 19:30N 41°17' E 003°08'816.0
2017-Jul-22 18:59N 41°16' E 002°57'816.1
2017-Jul-22 18:29N 41°16' E 002°47'816.4
2017-Jul-22 17:58N 41°16' E 002°36'816.2
2017-Jul-22 17:27N 41°16' E 002°24'715.7
2017-Jul-22 16:59N 41°15' E 002°15'511.2
2017-Jul-22 16:30N 41°20' E 002°10'2 1.1
2017-Jul-22 14:37N 41°22' E 002°11'0 0.0
2017-Jul-22 11:19N 41°22' E 002°11'0 0.0
2017-Jul-22 10:55N 41°22' E 002°11'0 0.0
2017-Jul-22 10:19N 41°22' E 002°11'0 0.0
2017-Jul-22 08:55N 41°22' E 002°11'0 0.0
2017-Jul-22 06:58N 41°22' E 002°11'1 1.6
2017-Jul-22 06:26N 41°21' E 002°10'4 7.7
2017-Jul-22 05:59N 41°17' E 002°11'510.4
2017-Jul-22 05:30N 41°16' E 002°17'713.0
2017-Jul-22 05:00N 41°15' E 002°26'913.9
2017-Jul-22 04:20N 41°17' E 002°38'514.1
2017-Jul-22 03:59N 41°20' E 002°44'714.3
2017-Jul-22 03:30N 41°23' E 002°51'714.3
2017-Jul-22 03:00N 41°27' E 002°59'713.9
2017-Jul-22 02:30N 41°32' E 003°07'714.0
2017-Jul-22 02:00N 41°36' E 003°14'815.6
2017-Jul-22 01:30N 41°40' E 003°23'1016.2
2017-Jul-22 00:53N 41°46' E 003°34'616.4
2017-Jul-22 00:30N 41°50' E 003°41'816.5
2017-Jul-21 23:59N 41°54' E 003°50'816.5
2017-Jul-21 23:30N 41°59' E 003°59'816.4
2017-Jul-21 23:00N 42°04' E 004°08'816.4
2017-Jul-21 22:31N 42°08' E 004°17'816.0
2017-Jul-21 22:00N 42°13' E 004°26'815.9
2017-Jul-21 21:31N 42°18' E 004°34'815.9
2017-Jul-21 21:01N 42°22' E 004°43'816.0
2017-Jul-21 20:30N 42°27' E 004°52'816.1
2017-Jul-21 20:00N 42°31' E 005°01'816.2
2017-Jul-21 19:31N 42°36' E 005°10'816.1
2017-Jul-21 19:01N 42°41' E 005°19'816.2
2017-Jul-21 18:29N 42°45' E 005°28'816.2
2017-Jul-21 18:00N 42°50' E 005°37'2115.2
2017-Jul-21 16:37N 43°04' E 005°58'111.4
2017-Jul-21 16:30N 43°05' E 005°57'2 3.7
2017-Jul-21 16:00N 43°07' E 005°56'0 0.0
2017-Jul-21 15:27N 43°07' E 005°56'0 0.0
2017-Jul-21 15:00N 43°07' E 005°56'0 0.0
2017-Jul-21 14:30N 43°07' E 005°56'0 0.0
2017-Jul-21 14:00N 43°07' E 005°56'0 0.0
2017-Jul-21 13:30N 43°07' E 005°56'0 0.0
2017-Jul-21 13:00N 43°07' E 005°56'0 0.0
2017-Jul-21 12:30N 43°07' E 005°56'0 0.0
2017-Jul-21 12:00N 43°07' E 005°56'0 0.0
2017-Jul-21 11:30N 43°07' E 005°56'0 0.0
2017-Jul-21 11:01N 43°07' E 005°56'0 0.0
2017-Jul-21 10:30N 43°07' E 005°56'0 0.0
2017-Jul-21 10:00N 43°07' E 005°56'0 0.0
2017-Jul-21 09:29N 43°07' E 005°56'0 0.0
2017-Jul-21 09:00N 43°07' E 005°56'0 0.0
2017-Jul-21 08:30N 43°07' E 005°56'0 0.0
2017-Jul-21 07:59N 43°07' E 005°56'0 0.0
2017-Jul-21 07:29N 43°07' E 005°56'0 0.0
2017-Jul-21 06:59N 43°07' E 005°56'0 0.0
2017-Jul-21 06:29N 43°07' E 005°56'0 0.9
2017-Jul-21 06:00N 43°07' E 005°55'2 4.2
2017-Jul-21 05:30N 43°05' E 005°57'5 9.7
2017-Jul-21 04:58N 43°01' E 006°02'1 1.7
2017-Jul-21 04:07N 43°00' E 006°03'0 1.5
2017-Jul-21 04:00N 43°00' E 006°04'1 1.5
2017-Jul-21 03:30N 42°60' E 006°04'2 2.0
2017-Jul-21 02:27N 42°58' E 006°06'4 9.0
2017-Jul-21 02:00N 42°54' E 006°09'4 8.7
2017-Jul-21 01:30N 42°50' E 006°11'4 8.6
2017-Jul-21 01:00N 42°47' E 006°14'4 7.6
2017-Jul-21 00:30N 42°44' E 006°18'4 8.7
2017-Jul-21 00:00N 42°44' E 006°24'4 8.8
2017-Jul-20 23:30N 42°44' E 006°30'12 8.1
2017-Jul-20 22:00N 42°52' E 006°43'5 8.8
2017-Jul-20 21:29N 42°55' E 006°48'4 8.8
2017-Jul-20 21:00N 42°58' E 006°52'4 8.9
2017-Jul-20 20:30N 43°01' E 006°56'4 8.8
2017-Jul-20 20:00N 43°04' E 007°00'4 8.7
2017-Jul-20 19:30N 43°08' E 007°04'4 8.5
2017-Jul-20 19:00N 43°11' E 007°07'4 8.8
2017-Jul-20 18:30N 43°15' E 007°11'4 8.8
2017-Jul-20 18:00N 43°18' E 007°14'4 8.3
2017-Jul-20 17:30N 43°22' E 007°16'4 8.8
2017-Jul-20 17:00N 43°26' E 007°17'4 8.8
2017-Jul-20 16:30N 43°31' E 007°17'4 8.5
2017-Jul-20 16:00N 43°35' E 007°18'4 8.0
2017-Jul-20 15:30N 43°39' E 007°18'2 4.0
2017-Jul-20 14:53N 43°42' E 007°19'0 0.0
2017-Jul-20 05:30N 43°41' E 007°19'3 5.4
2017-Jul-20 05:00N 43°39' E 007°21'611.5
2017-Jul-20 04:29N 43°39' E 007°30'510.4
2017-Jul-20 04:00N 43°39' E 007°37'911.3
2017-Jul-20 03:13N 43°38' E 007°49'211.4
2017-Jul-20 03:00N 43°38' E 007°52'611.5
2017-Jul-20 02:31N 43°38' E 007°60'612.3
2017-Jul-20 02:00N 43°37' E 008°08'612.4
2017-Jul-20 01:31N 43°37' E 008°17'612.3
2017-Jul-20 01:01N 43°36' E 008°25'612.1
2017-Jul-20 00:31N 43°36' E 008°34'612.2
2017-Jul-20 00:01N 43°36' E 008°42'612.2
2017-Jul-19 23:30N 43°35' E 008°51'611.8
2017-Jul-19 23:01N 43°35' E 008°59'611.8
2017-Jul-19 22:30N 43°35' E 009°07'611.8
2017-Jul-19 22:01N 43°34' E 009°15'611.9
2017-Jul-19 21:31N 43°34' E 009°23'611.8
2017-Jul-19 21:01N 43°33' E 009°31'611.9
2017-Jul-19 20:31N 43°33' E 009°39'611.6
2017-Jul-19 20:01N 43°32' E 009°47'611.2
2017-Jul-19 19:31N 43°31' E 009°55'713.5
2017-Jul-19 19:00N 43°31' E 010°04'713.4
2017-Jul-19 18:30N 43°32' E 010°13'4 7.3
2017-Jul-19 18:00N 43°33' E 010°18'0 0.1
2017-Jul-19 17:27N 43°33' E 010°18'0 0.0
2017-Jul-19 16:57N 43°33' E 010°18'0 0.0
2017-Jul-19 16:21N 43°33' E 010°18'0 0.0
2017-Jul-19 15:57N 43°33' E 010°18'0 0.0
2017-Jul-19 15:27N 43°33' E 010°18'0 0.0
2017-Jul-19 14:57N 43°33' E 010°18'0 0.0
2017-Jul-19 14:27N 43°33' E 010°18'0 0.0
2017-Jul-19 13:51N 43°33' E 010°18'0 0.0
2017-Jul-19 13:27N 43°33' E 010°18'0 0.0
2017-Jul-19 12:51N 43°33' E 010°18'0 0.0
2017-Jul-19 12:27N 43°33' E 010°18'0 0.0
2017-Jul-19 11:57N 43°33' E 010°18'0 0.0
2017-Jul-19 11:27N 43°33' E 010°18'0 0.0
2017-Jul-19 10:57N 43°33' E 010°18'0 0.0
2017-Jul-19 10:27N 43°33' E 010°18'0 0.0
2017-Jul-19 09:57N 43°33' E 010°18'0 0.0
2017-Jul-19 09:27N 43°33' E 010°18'0 0.0
2017-Jul-19 08:57N 43°33' E 010°18'0 0.0
2017-Jul-19 08:27N 43°33' E 010°18'0 0.0
2017-Jul-19 07:57N 43°33' E 010°18'0 0.0
2017-Jul-19 07:27N 43°33' E 010°18'0 0.0
2017-Jul-19 06:57N 43°33' E 010°18'0 0.0
2017-Jul-19 06:27N 43°33' E 010°18'0 0.0
2017-Jul-19 05:57N 43°33' E 010°18'0 0.4
2017-Jul-19 05:30N 43°33' E 010°18'3 5.1
2017-Jul-19 05:00N 43°31' E 010°16'510.7
2017-Jul-19 04:30N 43°26' E 010°12'611.4
2017-Jul-19 04:00N 43°21' E 010°11'611.9
2017-Jul-19 03:30N 43°15' E 010°09'611.8
2017-Jul-19 03:00N 43°09' E 010°07'611.8
2017-Jul-19 02:30N 43°03' E 010°06'611.8
2017-Jul-19 02:01N 42°58' E 010°05'611.9
2017-Jul-19 01:31N 42°52' E 010°03'611.7
2017-Jul-19 01:00N 42°46' E 010°02'611.6
2017-Jul-19 00:31N 42°41' E 010°06'1411.6
2017-Jul-18 23:16N 42°30' E 010°19'311.8
2017-Jul-18 23:00N 42°28' E 010°22'1711.9
2017-Jul-18 21:35N 42°15' E 010°37'311.6
2017-Jul-18 21:22N 42°13' E 010°39'611.6
2017-Jul-18 20:51N 42°09' E 010°44'411.6
2017-Jul-18 20:30N 42°06' E 010°48'611.1
2017-Jul-18 20:00N 42°03' E 010°55'713.1
2017-Jul-18 19:30N 42°01' E 011°03'713.8
2017-Jul-18 19:00N 42°01' E 011°12'  

Dump ship's entire track history